createdAt,value
2019-06-27T00:04:03.040Z,19.90
2019-06-27T00:08:11.510Z,19.80
2019-06-27T00:12:20.012Z,19.80
2019-06-27T00:16:28.534Z,19.70
2019-06-27T00:20:37.022Z,19.70
2019-06-27T00:24:45.877Z,19.80
2019-06-27T00:28:54.362Z,19.70
2019-06-27T00:33:02.920Z,19.60
2019-06-27T00:37:11.391Z,19.50
2019-06-27T00:41:19.865Z,19.50
2019-06-27T00:45:28.717Z,19.40
2019-06-27T00:49:37.207Z,19.40
2019-06-27T00:53:45.688Z,19.40
2019-06-27T00:57:54.224Z,19.30
2019-06-27T01:02:02.714Z,19.30
2019-06-27T01:06:11.197Z,19.30
2019-06-27T01:10:20.420Z,19.20
2019-06-27T01:14:28.899Z,19.40
2019-06-27T01:18:37.450Z,19.40
2019-06-27T01:22:45.909Z,19.30
2019-06-27T01:26:54.464Z,19.20
2019-06-27T01:31:03.077Z,19.20
2019-06-27T01:35:11.822Z,19.20
2019-06-27T01:39:20.374Z,19.10
2019-06-27T01:43:28.835Z,19.10
2019-06-27T01:47:37.342Z,18.90
2019-06-27T01:51:45.814Z,18.80
2019-06-27T01:55:54.316Z,18.80
2019-06-27T02:00:03.981Z,18.80
2019-06-27T02:04:12.449Z,18.90
2019-06-27T02:08:20.945Z,18.60
2019-06-27T02:12:29.444Z,18.40
2019-06-27T02:16:37.945Z,18.50
2019-06-27T02:20:46.465Z,18.50
2019-06-27T02:24:54.955Z,18.60
2019-06-27T02:29:03.460Z,18.80
2019-06-27T02:33:12.105Z,18.70
2019-06-27T02:37:20.661Z,18.60
2019-06-27T02:41:29.174Z,18.50
2019-06-27T02:45:37.723Z,18.50
2019-06-27T02:49:49.906Z,18.40
2019-06-27T02:53:56.468Z,18.40
2019-06-27T02:58:27.909Z,18.30
2019-06-27T03:02:15.239Z,18.30
2019-06-27T03:06:23.694Z,18.30
2019-06-27T03:10:32.202Z,18.30
2019-06-27T03:14:40.792Z,18.20
2019-06-27T03:18:49.503Z,18.20
2019-06-27T03:22:58.009Z,18.20
2019-06-27T03:27:06.507Z,18.20
2019-06-27T03:31:15.050Z,18.20
2019-06-27T03:35:23.576Z,18.20
2019-06-27T03:39:32.152Z,18.30
2019-06-27T03:43:40.682Z,18.30
2019-06-27T03:48:08.533Z,18.20
2019-06-27T03:52:17.087Z,18.10
2019-06-27T03:56:25.573Z,18.20
2019-06-27T04:00:34.490Z,18.20
2019-06-27T04:04:43.066Z,18.30
2019-06-27T04:08:51.641Z,18.20
2019-06-27T04:13:00.150Z,18.10
2019-06-27T04:17:08.958Z,18.10
2019-06-27T04:21:17.505Z,18.10
2019-06-27T04:25:26.078Z,18.00
2019-06-27T04:29:35.070Z,17.90
2019-06-27T04:33:43.827Z,18.00
2019-06-27T04:37:52.406Z,18.00
2019-06-27T04:42:00.973Z,18.00
2019-06-27T04:46:09.492Z,18.10
2019-06-27T04:50:18.017Z,18.20
2019-06-27T04:54:26.482Z,18.30
2019-06-27T04:58:34.960Z,18.20
2019-06-27T05:02:43.471Z,18.20
2019-06-27T05:06:51.964Z,18.20
2019-06-27T05:11:00.458Z,18.20
2019-06-27T05:15:09.025Z,18.00
2019-06-27T05:19:17.595Z,18.00
2019-06-27T05:23:26.136Z,18.10
2019-06-27T05:27:34.637Z,18.30
2019-06-27T05:31:43.139Z,18.40
2019-06-27T05:35:52.130Z,18.30
2019-06-27T05:40:00.625Z,18.30
2019-06-27T05:44:09.125Z,18.30
2019-06-27T05:48:17.613Z,18.30
2019-06-27T05:52:26.187Z,18.30
2019-06-27T05:56:34.640Z,18.40
2019-06-27T06:00:43.200Z,18.30
2019-06-27T06:04:51.704Z,18.40
2019-06-27T06:09:00.265Z,18.30
2019-06-27T06:13:08.732Z,18.40
2019-06-27T06:17:17.231Z,18.40
2019-06-27T06:21:25.694Z,18.40
2019-06-27T06:25:34.198Z,18.40
2019-06-27T06:29:42.681Z,18.50
2019-06-27T06:33:51.186Z,18.60
2019-06-27T06:38:00.621Z,18.80
2019-06-27T06:42:09.113Z,18.70
2019-06-27T06:46:19.233Z,18.80
2019-06-27T06:50:27.726Z,18.80
2019-06-27T06:54:36.235Z,18.80
2019-06-27T06:58:44.798Z,19.00
2019-06-27T07:02:53.346Z,18.90
2019-06-27T07:07:01.883Z,18.80
2019-06-27T07:11:10.394Z,18.90
2019-06-27T07:15:18.944Z,18.90
2019-06-27T07:19:27.424Z,19.00
2019-06-27T07:23:35.929Z,19.10
2019-06-27T07:27:44.419Z,19.00
2019-06-27T07:31:52.915Z,19.10
2019-06-27T07:36:01.475Z,19.20
2019-06-27T07:40:10.222Z,19.30
2019-06-27T07:44:20.345Z,19.20
2019-06-27T07:48:28.891Z,19.40
2019-06-27T07:52:37.452Z,19.70
2019-06-27T07:56:46.470Z,19.80
2019-06-27T08:00:55.215Z,20.00
2019-06-27T08:05:06.410Z,20.10
2019-06-27T08:09:14.902Z,20.30
2019-06-27T08:13:23.461Z,20.30
2019-06-27T08:17:31.950Z,20.40
2019-06-27T08:21:40.438Z,20.60
2019-06-27T08:25:49.114Z,20.90
2019-06-27T08:29:57.612Z,21.00
2019-06-27T08:34:06.122Z,21.20
2019-06-27T08:38:14.637Z,21.30
2019-06-27T08:42:23.140Z,21.20
2019-06-27T08:46:31.657Z,21.20
2019-06-27T08:50:40.225Z,21.00
2019-06-27T08:54:48.746Z,21.20
2019-06-27T08:58:57.331Z,21.30
2019-06-27T09:03:06.002Z,21.80
2019-06-27T09:07:14.487Z,22.00
2019-06-27T09:11:23.086Z,22.00
2019-06-27T09:15:31.802Z,22.00
2019-06-27T09:19:40.376Z,22.00
2019-06-27T09:23:48.941Z,22.10
2019-06-27T09:27:57.421Z,22.40
2019-06-27T09:32:05.931Z,22.70
2019-06-27T09:36:14.391Z,23.00
2019-06-27T09:40:24.035Z,22.80
2019-06-27T09:44:32.536Z,23.00
2019-06-27T09:48:41.093Z,23.10
2019-06-27T09:52:49.635Z,23.30
2019-06-27T09:56:58.191Z,23.40
2019-06-27T10:01:07.242Z,23.50
2019-06-27T10:05:15.860Z,23.50
2019-06-27T10:09:24.361Z,23.40
2019-06-27T10:13:32.947Z,23.70
2019-06-27T10:17:41.440Z,23.60
2019-06-27T10:21:49.908Z,23.90
2019-06-27T10:25:58.421Z,24.10
2019-06-27T10:30:07.591Z,24.40
2019-06-27T10:34:16.167Z,24.60
2019-06-27T10:38:25.041Z,24.70
2019-06-27T10:42:33.603Z,24.80
2019-06-27T10:46:42.073Z,25.00
2019-06-27T10:50:50.928Z,25.10
2019-06-27T10:55:00.834Z,24.90
2019-06-27T10:59:09.320Z,24.90
2019-06-27T11:03:17.875Z,25.10
2019-06-27T11:07:26.446Z,25.10
2019-06-27T11:11:34.996Z,25.10
2019-06-27T11:15:43.502Z,25.30
2019-06-27T11:19:52.924Z,25.60
2019-06-27T11:24:01.689Z,25.50
2019-06-27T11:28:10.427Z,25.40
2019-06-27T11:32:19.133Z,25.70
2019-06-27T11:36:27.604Z,25.70
2019-06-27T11:40:36.079Z,25.80
2019-06-27T11:44:44.654Z,26.00
2019-06-27T11:48:53.147Z,26.10
2019-06-27T11:53:01.732Z,26.10
2019-06-27T11:57:10.287Z,26.20
2019-06-27T12:01:18.781Z,26.30
2019-06-27T12:05:27.289Z,26.30
2019-06-27T12:09:35.806Z,26.40
2019-06-27T12:13:45.220Z,26.60
2019-06-27T12:17:53.725Z,26.90
2019-06-27T12:22:02.325Z,27.10
2019-06-27T12:26:10.834Z,27.10
2019-06-27T12:30:19.582Z,27.00
2019-06-27T12:34:28.150Z,27.00
2019-06-27T12:38:36.740Z,27.10
2019-06-27T12:42:45.195Z,27.00
2019-06-27T12:46:53.690Z,27.00
2019-06-27T12:51:02.199Z,27.00
2019-06-27T12:55:11.146Z,27.00
2019-06-27T12:59:19.777Z,27.30
2019-06-27T13:03:28.289Z,27.30
2019-06-27T13:07:36.845Z,27.30
2019-06-27T13:11:45.324Z,27.50
2019-06-27T13:15:53.903Z,27.60
2019-06-27T13:20:02.976Z,27.70
2019-06-27T13:24:11.572Z,27.90
2019-06-27T13:28:20.062Z,28.00
2019-06-27T13:32:28.538Z,27.80
2019-06-27T13:36:37.032Z,28.00
2019-06-27T13:40:45.573Z,28.10
2019-06-27T13:44:54.057Z,28.10
2019-06-27T13:49:03.201Z,28.00
2019-06-27T13:53:11.688Z,28.00
2019-06-27T13:57:20.403Z,28.20
2019-06-27T14:01:29.154Z,28.30
2019-06-27T14:05:37.646Z,28.40
2019-06-27T14:09:53.822Z,28.40
2019-06-27T14:13:56.336Z,28.50
2019-06-27T14:18:04.894Z,28.50
2019-06-27T14:22:15.319Z,28.40
2019-06-27T14:26:23.591Z,28.60
2019-06-27T14:30:32.061Z,28.60
2019-06-27T14:34:40.557Z,28.70
2019-06-27T14:38:49.055Z,28.60
2019-06-27T14:42:57.510Z,28.60
2019-06-27T14:47:06.042Z,28.60
2019-06-27T14:51:14.552Z,28.60
2019-06-27T14:55:23.158Z,28.60
2019-06-27T14:59:31.613Z,28.70
2019-06-27T15:03:40.099Z,28.60
2019-06-27T15:07:48.589Z,28.40
2019-06-27T15:11:57.096Z,28.40
2019-06-27T15:16:11.659Z,28.30
2019-06-27T15:20:15.986Z,28.40
2019-06-27T15:24:24.562Z,28.40
2019-06-27T15:28:34.242Z,28.50
2019-06-27T15:32:42.978Z,28.50
2019-06-27T15:36:51.521Z,28.70
2019-06-27T15:41:00.337Z,28.50
2019-06-27T15:45:10.790Z,28.60
2019-06-27T15:49:19.346Z,28.50
2019-06-27T15:53:27.851Z,28.40
2019-06-27T15:57:36.378Z,28.20
2019-06-27T16:01:44.870Z,28.20
2019-06-27T16:06:08.157Z,28.20
2019-06-27T16:10:04.894Z,28.10
2019-06-27T16:14:13.371Z,28.00
2019-06-27T16:18:21.856Z,28.00
2019-06-27T16:22:30.411Z,27.90
2019-06-27T16:26:38.909Z,27.80
2019-06-27T16:30:47.470Z,28.00
2019-06-27T16:34:55.970Z,28.00
2019-06-27T16:39:05.615Z,27.80
2019-06-27T16:43:14.157Z,27.70
2019-06-27T16:47:22.633Z,27.80
2019-06-27T16:51:31.094Z,27.70
2019-06-27T16:55:39.581Z,27.60
2019-06-27T16:59:48.071Z,27.50
2019-06-27T17:03:56.522Z,27.20
2019-06-27T17:08:05.089Z,27.10
2019-06-27T17:12:13.569Z,27.00
2019-06-27T17:16:22.408Z,26.90
2019-06-27T17:20:31.107Z,26.50
2019-06-27T17:24:39.673Z,26.30
2019-06-27T17:28:48.332Z,26.20
2019-06-27T17:32:56.963Z,26.10
2019-06-27T17:37:05.452Z,26.00
2019-06-27T17:41:13.937Z,25.90
2019-06-27T17:45:25.420Z,25.70
2019-06-27T17:49:32.774Z,25.60
2019-06-27T17:53:41.235Z,25.40
2019-06-27T17:57:49.811Z,25.30
2019-06-27T18:01:58.254Z,25.20
2019-06-27T18:06:06.744Z,25.10
2019-06-27T18:10:15.655Z,24.90
2019-06-27T18:14:24.117Z,24.80
2019-06-27T18:18:32.617Z,24.80
2019-06-27T18:22:41.166Z,24.70
2019-06-27T18:26:49.662Z,24.50
2019-06-27T18:30:58.175Z,24.30
2019-06-27T18:35:07.066Z,24.30
2019-06-27T18:39:15.518Z,24.20
2019-06-27T18:43:24.119Z,24.00
2019-06-27T18:47:32.659Z,23.80
2019-06-27T18:51:41.217Z,23.80
2019-06-27T18:55:49.709Z,23.60
2019-06-27T18:59:58.208Z,23.40
2019-06-27T19:04:06.737Z,23.40
2019-06-27T19:08:15.304Z,23.10
2019-06-27T19:12:23.811Z,23.00
2019-06-27T19:16:32.438Z,22.80
2019-06-27T19:20:45.654Z,22.80
2019-06-27T19:24:55.781Z,22.60
2019-06-27T19:29:04.284Z,22.40
2019-06-27T19:33:12.815Z,22.40
2019-06-27T19:37:21.555Z,22.30
2019-06-27T19:41:30.081Z,22.10
2019-06-27T19:45:38.571Z,21.90
2019-06-27T19:49:47.048Z,22.00
2019-06-27T19:53:58.017Z,21.80
2019-06-27T19:58:05.697Z,21.80
2019-06-27T20:02:14.191Z,21.70
2019-06-27T20:06:22.712Z,21.60
2019-06-27T20:10:31.286Z,21.60
2019-06-27T20:14:39.814Z,21.50
2019-06-27T20:18:48.322Z,21.50
2019-06-27T20:22:56.810Z,21.40
2019-06-27T20:27:05.305Z,21.10
2019-06-27T20:31:13.752Z,21.20
2019-06-27T20:35:22.324Z,21.10
2019-06-27T20:39:30.814Z,21.00
2019-06-27T20:43:39.325Z,20.90
2019-06-27T20:47:49.595Z,20.90
2019-06-27T20:51:58.151Z,20.80
2019-06-27T20:56:06.638Z,20.80
2019-06-27T21:00:15.375Z,20.80
2019-06-27T21:04:23.840Z,20.70
2019-06-27T21:08:32.323Z,20.60
2019-06-27T21:12:40.877Z,20.50
2019-06-27T21:16:49.370Z,20.50
2019-06-27T21:20:57.901Z,20.40
2019-06-27T21:25:06.554Z,20.20
2019-06-27T21:29:17.113Z,20.10
2019-06-27T21:33:25.230Z,20.00
2019-06-27T21:37:33.721Z,19.90
2019-06-27T21:41:42.198Z,19.80
2019-06-27T21:45:50.705Z,19.90
2019-06-27T21:49:59.346Z,20.10
2019-06-27T21:54:07.838Z,20.20
2019-06-27T21:58:18.553Z,20.20
2019-06-27T22:02:27.031Z,20.10
2019-06-27T22:06:35.515Z,19.90
2019-06-27T22:10:44.162Z,19.70
2019-06-27T22:14:52.618Z,19.60
2019-06-27T22:19:01.119Z,19.50
2019-06-27T22:23:09.680Z,19.50
2019-06-27T22:27:18.178Z,19.50
2019-06-27T22:31:26.640Z,19.30
2019-06-27T22:35:35.236Z,19.30
2019-06-27T22:40:01.694Z,19.30
2019-06-27T22:44:28.509Z,19.30
2019-06-27T22:48:36.463Z,19.30
2019-06-27T22:53:02.932Z,19.30
2019-06-27T22:57:11.509Z,19.30
2019-06-27T23:01:20.057Z,19.30
2019-06-27T23:05:28.549Z,19.30
2019-06-27T23:09:37.082Z,19.20
2019-06-27T23:13:45.816Z,19.10
2019-06-27T23:17:54.941Z,19.00
2019-06-27T23:22:03.429Z,18.90
2019-06-27T23:26:31.345Z,18.80
2019-06-27T23:30:39.818Z,18.70
2019-06-27T23:34:48.414Z,18.50
2019-06-27T23:38:56.897Z,18.40
2019-06-27T23:43:05.393Z,18.40
2019-06-27T23:47:13.878Z,18.40
2019-06-27T23:51:22.363Z,18.40
2019-06-27T23:55:30.953Z,18.40
2019-06-27T23:59:39.520Z,18.30
